Time;durP1;ratioP1;P1;durP2;ratioP2;P2;SDS_P1;SDS_P2;PMS_P1;PMS_P2;Temp;Humidity;BMP_temperature;BMP_pressure;BME280_temperature;BME280_humidity;BME280_pressure;Samples;Min_cycle;Max_cycle;Signal;HPM_P1;HPM_P2
2021/10/21 10:58:05;;;;;;;17.23;2.65;;;14.60;99.90;;;;;;11965898;28;21360;-50
2021/10/21 11:03:52;;;;;;;13.02;1.95;;;15.00;99.90;;;;;;11956844;28;20528;-50
2021/10/21 11:09:42;;;;;;;18.45;2.72;;;15.50;99.90;;;;;;11964826;28;20052;-48
2021/10/21 11:15:41;;;;;;;17.30;2.63;;;16.00;99.90;;;;;;11956001;28;20128;-47
2021/10/21 11:21:58;;;;;;;19.40;2.20;;;16.40;99.90;;;;;;11963778;28;20048;-48
2021/10/21 11:27:46;;;;;;;13.10;2.70;;;16.30;99.90;;;;;;11778328;28;20150;-49
2021/10/21 11:33:36;;;;;;;22.45;2.95;;;16.10;99.90;;;;;;11815290;28;20054;-52
2021/10/21 11:39:30;;;;;;;25.40;3.45;;;15.90;99.90;;;;;;11813761;28;20054;-46
2021/10/21 11:50:07;;;;;;;17.58;3.05;;;15.50;99.90;;;;;;12092005;27;20945;-48
2021/10/21 11:55:56;;;;;;;21.67;2.85;;;15.20;99.90;;;;;;12044804;28;20052;-46
2021/10/21 12:01:43;;;;;;;18.92;2.78;;;15.50;99.90;;;;;;12027189;28;20566;-48
2021/10/21 12:07:31;;;;;;;22.27;2.90;;;15.80;99.90;;;;;;12070214;28;20036;-51
2021/10/21 12:13:27;;;;;;;13.65;2.85;;;16.10;99.90;;;;;;12043778;28;20060;-50
2021/10/21 12:19:20;;;;;;;19.63;4.13;;;16.40;99.90;;;;;;12014895;28;20370;-48
2021/10/21 12:25:09;;;;;;;19.83;3.13;;;16.20;99.90;;;;;;12014543;28;20063;-46
2021/10/21 12:30:57;;;;;;;22.83;3.08;;;15.70;99.90;;;;;;12058965;28;20112;-50
2021/10/21 12:36:45;;;;;;;17.92;3.10;;;15.50;99.90;;;;;;12048523;27;20130;-48
2021/10/21 12:42:33;;;;;;;25.88;3.13;;;15.50;99.90;;;;;;12020699;28;20056;-47
2021/10/21 12:48:25;;;;;;;18.77;2.67;;;15.50;99.90;;;;;;12021314;28;20045;-46
2021/10/21 12:54:25;;;;;;;16.60;3.10;;;15.30;99.90;;;;;;12019793;28;20462;-49
2021/10/21 13:00:14;;;;;;;12.82;2.42;;;15.30;99.90;;;;;;11975870;28;20052;-48
2021/10/21 13:06:01;;;;;;;13.27;2.35;;;15.40;99.90;;;;;;12012335;28;20060;-51
2021/10/21 13:11:47;;;;;;;17.88;2.30;;;15.30;99.90;;;;;;12038954;28;20427;-49
2021/10/21 13:17:36;;;;;;;14.27;2.20;;;15.50;99.90;;;;;;12035507;28;20045;-49
2021/10/21 13:23:22;;;;;;;11.10;3.10;;;15.60;99.90;;;;;;12033389;28;20052;-50
2021/10/21 13:29:09;;;;;;;16.88;2.85;;;15.60;99.90;;;;;;12045639;28;20040;-47
2021/10/21 13:34:58;;;;;;;24.30;3.70;;;15.50;99.90;;;;;;12069603;28;20056;-49
2021/10/21 13:40:45;;;;;;;19.77;3.78;;;15.30;99.90;;;;;;12042174;28;20044;-48
2021/10/21 13:46:33;;;;;;;25.38;3.92;;;15.50;99.90;;;;;;12066868;28;20049;-47
2021/10/21 13:52:21;;;;;;;23.27;4.53;;;15.10;99.90;;;;;;12065425;28;20551;-49
2021/10/21 13:58:09;;;;;;;26.10;4.57;;;15.30;99.90;;;;;;12066689;27;20173;-48
2021/10/21 14:03:56;;;;;;;6.57;1.15;;;15.20;99.90;;;;;;12065757;28;20033;-50
2021/10/21 14:09:45;;;;;;;6.03;0.93;;;14.80;99.90;;;;;;12064694;28;20186;-49
2021/10/21 14:15:32;;;;;;;6.90;0.85;;;14.60;99.90;;;;;;12001579;28;22288;-49
2021/10/21 14:21:19;;;;;;;6.85;0.90;;;14.70;99.90;;;;;;11989846;28;20053;-53
2021/10/21 14:27:11;;;;;;;5.72;1.08;;;14.80;99.90;;;;;;12016027;28;20055;-50
2021/10/21 14:32:57;;;;;;;2.20;0.57;;;14.80;99.90;;;;;;12033654;28;20056;-51
2021/10/21 14:38:44;;;;;;;2.38;0.80;;;15.10;99.90;;;;;;12007332;28;20048;-48
2021/10/21 14:44:33;;;;;;;3.20;0.85;;;15.50;99.90;;;;;;12038858;28;20048;-47
2021/10/21 14:50:19;;;;;;;3.72;1.25;;;15.30;99.90;;;;;;12007069;28;20049;-48
2021/10/21 14:56:07;;;;;;;5.57;1.10;;;15.30;99.90;;;;;;12009438;28;20036;-51
2021/10/21 15:01:56;;;;;;;6.30;1.42;;;15.60;99.90;;;;;;12008626;28;20393;-50
2021/10/21 15:07:55;;;;;;;2.13;0.88;;;15.60;99.90;;;;;;12011368;28;20060;-48
2021/10/21 15:13:59;;;;;;;4.60;1.45;;;15.50;99.90;;;;;;11982283;28;20464;-51
2021/10/21 15:25:53;;;;;;;7.25;1.73;;;15.10;99.90;;;;;;11869736;28;19983;-49
2021/10/21 15:31:40;;;;;;;5.80;1.40;;;15.30;99.90;;;;;;11903566;28;20042;-53
2021/10/21 15:37:28;;;;;;;8.35;2.08;;;15.00;99.90;;;;;;11924273;28;20049;-48
2021/10/21 15:43:19;;;;;;;12.32;2.80;;;14.70;99.90;;;;;;11906950;28;20077;-48
2021/10/21 16:13:25;;;;;;;14.43;2.70;;;14.30;99.90;;;;;;11979683;28;20238;-48
